sensor_id;sensor_type;location;lat;lon;timestamp;temperature;humidity
1405;DHT22;697;51.114;6.542;2022-10-31T00:02:20;17.30;93.10
1405;DHT22;697;51.114;6.542;2022-10-31T00:04:48;17.30;93.10
1405;DHT22;697;51.114;6.542;2022-10-31T00:07:15;17.20;93.10
1405;DHT22;697;51.114;6.542;2022-10-31T00:09:42;17.20;93.10
1405;DHT22;697;51.114;6.542;2022-10-31T00:12:08;17.20;93.20
1405;DHT22;697;51.114;6.542;2022-10-31T00:14:35;17.20;93.20
1405;DHT22;697;51.114;6.542;2022-10-31T00:17:02;17.10;93.20
1405;DHT22;697;51.114;6.542;2022-10-31T00:19:29;17.10;93.30
1405;DHT22;697;51.114;6.542;2022-10-31T00:21:57;17.10;93.30
1405;DHT22;697;51.114;6.542;2022-10-31T00:24:24;17.10;93.30
1405;DHT22;697;51.114;6.542;2022-10-31T00:26:50;17.00;93.30
1405;DHT22;697;51.114;6.542;2022-10-31T00:29:17;17.00;93.30
1405;DHT22;697;51.114;6.542;2022-10-31T00:31:44;17.00;93.40
1405;DHT22;697;51.114;6.542;2022-10-31T00:34:10;17.00;93.60
1405;DHT22;697;51.114;6.542;2022-10-31T00:36:37;17.00;93.60
1405;DHT22;697;51.114;6.542;2022-10-31T00:39:05;17.00;93.70
1405;DHT22;697;51.114;6.542;2022-10-31T00:41:32;17.00;93.80
1405;DHT22;697;51.114;6.542;2022-10-31T00:43:59;17.00;94.00
1405;DHT22;697;51.114;6.542;2022-10-31T00:46:25;17.00;94.10
1405;DHT22;697;51.114;6.542;2022-10-31T00:48:52;17.00;94.10
1405;DHT22;697;51.114;6.542;2022-10-31T00:51:19;17.10;94.20
1405;DHT22;697;51.114;6.542;2022-10-31T00:53:46;17.10;94.20
1405;DHT22;697;51.114;6.542;2022-10-31T00:56:14;17.10;94.10
1405;DHT22;697;51.114;6.542;2022-10-31T00:58:40;17.10;94.10
1405;DHT22;697;51.114;6.542;2022-10-31T01:01:07;17.10;94.10
1405;DHT22;697;51.114;6.542;2022-10-31T01:03:34;17.10;94.10
1405;DHT22;697;51.114;6.542;2022-10-31T01:06:03;17.10;94.20
1405;DHT22;697;51.114;6.542;2022-10-31T01:08:30;17.10;94.20
1405;DHT22;697;51.114;6.542;2022-10-31T01:11:01;17.10;94.10
1405;DHT22;697;51.114;6.542;2022-10-31T01:13:29;17.00;94.10
1405;DHT22;697;51.114;6.542;2022-10-31T01:15:57;17.10;94.30
1405;DHT22;697;51.114;6.542;2022-10-31T01:18:24;17.10;94.40
1405;DHT22;697;51.114;6.542;2022-10-31T01:21:01;17.10;94.80
1405;DHT22;697;51.114;6.542;2022-10-31T01:23:28;17.10;94.50
1405;DHT22;697;51.114;6.542;2022-10-31T01:26:06;17.10;94.60
1405;DHT22;697;51.114;6.542;2022-10-31T01:28:36;17.10;94.60
1405;DHT22;697;51.114;6.542;2022-10-31T01:31:05;17.10;94.60
1405;DHT22;697;51.114;6.542;2022-10-31T01:33:32;17.10;94.70
1405;DHT22;697;51.114;6.542;2022-10-31T01:35:59;17.10;94.70
1405;DHT22;697;51.114;6.542;2022-10-31T01:38:26;17.00;94.70
1405;DHT22;697;51.114;6.542;2022-10-31T01:40:52;17.10;94.70
1405;DHT22;697;51.114;6.542;2022-10-31T01:43:19;17.00;94.60
1405;DHT22;697;51.114;6.542;2022-10-31T01:45:51;17.00;94.50
1405;DHT22;697;51.114;6.542;2022-10-31T01:48:24;17.00;94.50
1405;DHT22;697;51.114;6.542;2022-10-31T01:50:54;17.00;94.40
1405;DHT22;697;51.114;6.542;2022-10-31T01:53:21;16.90;94.30
1405;DHT22;697;51.114;6.542;2022-10-31T01:55:48;16.90;94.20
1405;DHT22;697;51.114;6.542;2022-10-31T01:58:18;16.90;94.10
1405;DHT22;697;51.114;6.542;2022-10-31T02:00:48;16.90;94.00
1405;DHT22;697;51.114;6.542;2022-10-31T02:03:16;16.80;94.00
1405;DHT22;697;51.114;6.542;2022-10-31T02:05:44;16.80;94.00
1405;DHT22;697;51.114;6.542;2022-10-31T02:08:14;16.70;93.90
1405;DHT22;697;51.114;6.542;2022-10-31T02:10:45;16.70;93.80
1405;DHT22;697;51.114;6.542;2022-10-31T02:13:13;16.60;93.70
1405;DHT22;697;51.114;6.542;2022-10-31T02:15:40;16.60;93.60
1405;DHT22;697;51.114;6.542;2022-10-31T02:18:10;16.60;93.60
1405;DHT22;697;51.114;6.542;2022-10-31T02:20:45;16.50;93.60
1405;DHT22;697;51.114;6.542;2022-10-31T02:23:33;16.50;93.60
1405;DHT22;697;51.114;6.542;2022-10-31T02:26:31;16.50;93.70
1405;DHT22;697;51.114;6.542;2022-10-31T02:32:03;16.40;93.70
1405;DHT22;697;51.114;6.542;2022-10-31T02:34:37;16.40;93.90
1405;DHT22;697;51.114;6.542;2022-10-31T02:37:11;16.40;94.00
1405;DHT22;697;51.114;6.542;2022-10-31T02:39:47;16.40;94.20
1405;DHT22;697;51.114;6.542;2022-10-31T02:42:20;16.30;94.10
1405;DHT22;697;51.114;6.542;2022-10-31T02:44:54;16.30;94.20
1405;DHT22;697;51.114;6.542;2022-10-31T02:47:26;16.30;94.20
1405;DHT22;697;51.114;6.542;2022-10-31T02:49:56;16.30;94.20
1405;DHT22;697;51.114;6.542;2022-10-31T02:52:26;16.30;94.20
1405;DHT22;697;51.114;6.542;2022-10-31T02:54:53;16.30;94.30
1405;DHT22;697;51.114;6.542;2022-10-31T02:57:23;16.20;94.30
1405;DHT22;697;51.114;6.542;2022-10-31T02:59:55;16.30;94.40
1405;DHT22;697;51.114;6.542;2022-10-31T03:02:51;16.20;94.40
1405;DHT22;697;51.114;6.542;2022-10-31T03:05:32;16.20;94.30
1405;DHT22;697;51.114;6.542;2022-10-31T03:08:06;16.10;94.20
1405;DHT22;697;51.114;6.542;2022-10-31T03:10:40;16.20;94.20
1405;DHT22;697;51.114;6.542;2022-10-31T03:13:11;16.10;94.10
1405;DHT22;697;51.114;6.542;2022-10-31T03:15:42;16.10;94.10
1405;DHT22;697;51.114;6.542;2022-10-31T03:18:14;16.10;94.10
1405;DHT22;697;51.114;6.542;2022-10-31T03:20:45;16.10;94.00
1405;DHT22;697;51.114;6.542;2022-10-31T03:23:16;16.00;93.80
1405;DHT22;697;51.114;6.542;2022-10-31T03:25:45;16.10;93.90
1405;DHT22;697;51.114;6.542;2022-10-31T03:28:16;16.00;93.80
1405;DHT22;697;51.114;6.542;2022-10-31T03:30:45;16.00;93.80
1405;DHT22;697;51.114;6.542;2022-10-31T03:33:17;16.00;93.80
1405;DHT22;697;51.114;6.542;2022-10-31T03:35:47;15.90;93.80
1405;DHT22;697;51.114;6.542;2022-10-31T03:38:18;15.90;93.80
1405;DHT22;697;51.114;6.542;2022-10-31T03:40:47;15.90;93.80
1405;DHT22;697;51.114;6.542;2022-10-31T03:43:21;15.90;93.80
1405;DHT22;697;51.114;6.542;2022-10-31T03:45:51;15.90;93.70
1405;DHT22;697;51.114;6.542;2022-10-31T03:48:20;15.80;93.70
1405;DHT22;697;51.114;6.542;2022-10-31T03:50:56;15.80;93.80
1405;DHT22;697;51.114;6.542;2022-10-31T03:53:28;15.80;93.90
1405;DHT22;697;51.114;6.542;2022-10-31T03:56:01;15.80;93.80
1405;DHT22;697;51.114;6.542;2022-10-31T03:58:32;15.80;93.70
1405;DHT22;697;51.114;6.542;2022-10-31T04:01:03;15.80;93.60
1405;DHT22;697;51.114;6.542;2022-10-31T04:03:35;15.70;93.50
1405;DHT22;697;51.114;6.542;2022-10-31T04:06:05;15.70;93.50
1405;DHT22;697;51.114;6.542;2022-10-31T04:08:36;15.70;93.60
1405;DHT22;697;51.114;6.542;2022-10-31T04:11:04;15.60;93.60
1405;DHT22;697;51.114;6.542;2022-10-31T04:13:33;15.60;93.70
1405;DHT22;697;51.114;6.542;2022-10-31T04:16:01;15.60;93.60
1405;DHT22;697;51.114;6.542;2022-10-31T04:18:27;15.60;93.50
1405;DHT22;697;51.114;6.542;2022-10-31T04:21:01;15.60;93.50
1405;DHT22;697;51.114;6.542;2022-10-31T04:23:29;15.50;93.30
1405;DHT22;697;51.114;6.542;2022-10-31T04:25:56;15.50;93.30
1405;DHT22;697;51.114;6.542;2022-10-31T04:28:22;15.40;93.20
1405;DHT22;697;51.114;6.542;2022-10-31T04:30:51;15.40;93.20
1405;DHT22;697;51.114;6.542;2022-10-31T04:33:19;15.40;93.20
1405;DHT22;697;51.114;6.542;2022-10-31T04:35:46;15.40;93.30
1405;DHT22;697;51.114;6.542;2022-10-31T04:38:14;15.40;93.30
1405;DHT22;697;51.114;6.542;2022-10-31T04:40:41;15.40;93.40
1405;DHT22;697;51.114;6.542;2022-10-31T04:43:07;15.30;93.40
1405;DHT22;697;51.114;6.542;2022-10-31T04:45:34;15.30;93.30
1405;DHT22;697;51.114;6.542;2022-10-31T04:48:01;15.30;93.30
1405;DHT22;697;51.114;6.542;2022-10-31T04:50:27;15.30;93.40
1405;DHT22;697;51.114;6.542;2022-10-31T04:52:54;15.30;93.50
1405;DHT22;697;51.114;6.542;2022-10-31T04:55:22;15.30;93.60
1405;DHT22;697;51.114;6.542;2022-10-31T04:57:51;15.30;93.60
1405;DHT22;697;51.114;6.542;2022-10-31T05:00:19;15.30;93.70
1405;DHT22;697;51.114;6.542;2022-10-31T05:02:47;15.20;93.70
1405;DHT22;697;51.114;6.542;2022-10-31T05:05:14;15.20;93.80
1405;DHT22;697;51.114;6.542;2022-10-31T05:07:42;15.20;93.80
1405;DHT22;697;51.114;6.542;2022-10-31T05:10:10;15.20;93.80
1405;DHT22;697;51.114;6.542;2022-10-31T05:12:45;15.20;93.90
1405;DHT22;697;51.114;6.542;2022-10-31T05:15:12;15.20;94.10
1405;DHT22;697;51.114;6.542;2022-10-31T05:17:39;15.20;94.10
1405;DHT22;697;51.114;6.542;2022-10-31T05:20:06;15.20;94.10
1405;DHT22;697;51.114;6.542;2022-10-31T05:22:33;15.10;94.10
1405;DHT22;697;51.114;6.542;2022-10-31T05:24:59;15.10;94.20
1405;DHT22;697;51.114;6.542;2022-10-31T05:27:26;15.10;94.30
1405;DHT22;697;51.114;6.542;2022-10-31T05:29:54;15.20;94.30
1405;DHT22;697;51.114;6.542;2022-10-31T05:32:21;15.10;94.20
1405;DHT22;697;51.114;6.542;2022-10-31T05:34:48;15.10;94.20
1405;DHT22;697;51.114;6.542;2022-10-31T05:37:14;15.10;94.30
1405;DHT22;697;51.114;6.542;2022-10-31T05:39:41;15.10;94.30
1405;DHT22;697;51.114;6.542;2022-10-31T05:42:08;15.10;94.30
1405;DHT22;697;51.114;6.542;2022-10-31T05:44:35;15.00;94.30
1405;DHT22;697;51.114;6.542;2022-10-31T05:47:03;15.00;94.40
1405;DHT22;697;51.114;6.542;2022-10-31T05:49:29;15.10;94.50
1405;DHT22;697;51.114;6.542;2022-10-31T05:51:56;15.00;94.40
1405;DHT22;697;51.114;6.542;2022-10-31T05:54:23;15.00;94.40
1405;DHT22;697;51.114;6.542;2022-10-31T05:56:50;15.00;94.40
1405;DHT22;697;51.114;6.542;2022-10-31T05:59:16;15.00;94.50
1405;DHT22;697;51.114;6.542;2022-10-31T06:01:43;15.00;94.50
1405;DHT22;697;51.114;6.542;2022-10-31T06:04:11;15.00;94.40
1405;DHT22;697;51.114;6.542;2022-10-31T06:06:38;15.00;94.50
1405;DHT22;697;51.114;6.542;2022-10-31T06:09:05;15.00;94.60
1405;DHT22;697;51.114;6.542;2022-10-31T06:11:31;15.00;94.70
1405;DHT22;697;51.114;6.542;2022-10-31T06:13:58;15.00;94.80
1405;DHT22;697;51.114;6.542;2022-10-31T06:16:25;15.00;94.90
1405;DHT22;697;51.114;6.542;2022-10-31T06:18:52;15.00;94.90
1405;DHT22;697;51.114;6.542;2022-10-31T06:21:20;15.00;95.00
1405;DHT22;697;51.114;6.542;2022-10-31T06:23:46;15.00;95.10
1405;DHT22;697;51.114;6.542;2022-10-31T06:26:13;14.90;95.20
1405;DHT22;697;51.114;6.542;2022-10-31T06:28:40;15.00;95.30
1405;DHT22;697;51.114;6.542;2022-10-31T06:31:07;15.00;95.30
1405;DHT22;697;51.114;6.542;2022-10-31T06:33:33;15.00;95.30
1405;DHT22;697;51.114;6.542;2022-10-31T06:36:01;15.00;95.40
1405;DHT22;697;51.114;6.542;2022-10-31T06:38:30;14.90;95.40
1405;DHT22;697;51.114;6.542;2022-10-31T06:40:56;14.90;95.60
1405;DHT22;697;51.114;6.542;2022-10-31T06:43:23;14.90;95.60
1405;DHT22;697;51.114;6.542;2022-10-31T06:45:50;14.90;95.60
1405;DHT22;697;51.114;6.542;2022-10-31T06:48:16;15.00;95.60
1405;DHT22;697;51.114;6.542;2022-10-31T06:50:43;15.00;95.60
1405;DHT22;697;51.114;6.542;2022-10-31T06:53:10;15.00;95.50
1405;DHT22;697;51.114;6.542;2022-10-31T06:55:40;15.00;95.40
1405;DHT22;697;51.114;6.542;2022-10-31T06:58:09;15.00;95.40
1405;DHT22;697;51.114;6.542;2022-10-31T07:00:36;15.00;95.40
1405;DHT22;697;51.114;6.542;2022-10-31T07:03:04;15.00;95.40
1405;DHT22;697;51.114;6.542;2022-10-31T07:05:32;15.00;95.40
1405;DHT22;697;51.114;6.542;2022-10-31T07:08:00;15.00;95.30
1405;DHT22;697;51.114;6.542;2022-10-31T07:10:31;15.00;95.30
1405;DHT22;697;51.114;6.542;2022-10-31T07:13:01;15.00;95.30
1405;DHT22;697;51.114;6.542;2022-10-31T07:15:30;15.00;95.30
1405;DHT22;697;51.114;6.542;2022-10-31T07:17:59;15.00;95.30
1405;DHT22;697;51.114;6.542;2022-10-31T07:20:26;15.10;95.50
1405;DHT22;697;51.114;6.542;2022-10-31T07:22:53;15.10;95.50
1405;DHT22;697;51.114;6.542;2022-10-31T07:25:20;15.10;95.60
1405;DHT22;697;51.114;6.542;2022-10-31T07:27:46;15.10;95.70
1405;DHT22;697;51.114;6.542;2022-10-31T07:30:15;15.10;95.80
1405;DHT22;697;51.114;6.542;2022-10-31T07:32:43;15.20;95.80
1405;DHT22;697;51.114;6.542;2022-10-31T07:35:12;15.20;96.10
1405;DHT22;697;51.114;6.542;2022-10-31T07:37:40;15.20;95.70
1405;DHT22;697;51.114;6.542;2022-10-31T07:40:08;15.20;95.70
1405;DHT22;697;51.114;6.542;2022-10-31T07:42:35;15.30;95.70
1405;DHT22;697;51.114;6.542;2022-10-31T07:45:03;15.30;95.70
1405;DHT22;697;51.114;6.542;2022-10-31T07:47:38;15.30;95.70
1405;DHT22;697;51.114;6.542;2022-10-31T07:50:06;15.30;95.80
1405;DHT22;697;51.114;6.542;2022-10-31T07:52:32;15.40;95.90
1405;DHT22;697;51.114;6.542;2022-10-31T07:54:59;15.50;95.90
1405;DHT22;697;51.114;6.542;2022-10-31T07:57:26;15.50;95.90
1405;DHT22;697;51.114;6.542;2022-10-31T07:59:52;15.60;95.80
1405;DHT22;697;51.114;6.542;2022-10-31T08:02:19;15.60;95.80
1405;DHT22;697;51.114;6.542;2022-10-31T08:04:47;15.70;95.70
1405;DHT22;697;51.114;6.542;2022-10-31T08:07:15;15.80;95.70
1405;DHT22;697;51.114;6.542;2022-10-31T08:09:43;15.80;95.60
1405;DHT22;697;51.114;6.542;2022-10-31T08:12:10;15.90;95.60
1405;DHT22;697;51.114;6.542;2022-10-31T08:14:37;16.00;95.60
1405;DHT22;697;51.114;6.542;2022-10-31T08:17:04;16.00;95.50
1405;DHT22;697;51.114;6.542;2022-10-31T08:19:30;16.10;95.40
1405;DHT22;697;51.114;6.542;2022-10-31T08:21:59;16.20;95.30
1405;DHT22;697;51.114;6.542;2022-10-31T08:24:25;16.20;95.20
1405;DHT22;697;51.114;6.542;2022-10-31T08:26:52;16.30;95.10
1405;DHT22;697;51.114;6.542;2022-10-31T08:29:19;16.30;94.90
1405;DHT22;697;51.114;6.542;2022-10-31T08:31:46;16.40;94.80
1405;DHT22;697;51.114;6.542;2022-10-31T08:34:12;16.50;94.70
1405;DHT22;697;51.114;6.542;2022-10-31T08:36:39;16.50;94.60
1405;DHT22;697;51.114;6.542;2022-10-31T08:39:07;16.60;94.40
1405;DHT22;697;51.114;6.542;2022-10-31T08:41:34;16.60;94.40
1405;DHT22;697;51.114;6.542;2022-10-31T08:44:00;16.60;94.30
1405;DHT22;697;51.114;6.542;2022-10-31T08:46:27;16.70;94.20
1405;DHT22;697;51.114;6.542;2022-10-31T08:48:54;16.70;94.10
1405;DHT22;697;51.114;6.542;2022-10-31T08:51:21;16.80;94.10
1405;DHT22;697;51.114;6.542;2022-10-31T08:53:48;16.80;93.90
1405;DHT22;697;51.114;6.542;2022-10-31T08:56:16;16.80;93.80
1405;DHT22;697;51.114;6.542;2022-10-31T08:58:42;16.90;93.70
1405;DHT22;697;51.114;6.542;2022-10-31T09:01:09;17.00;93.60
1405;DHT22;697;51.114;6.542;2022-10-31T09:03:37;17.00;93.50
1405;DHT22;697;51.114;6.542;2022-10-31T09:06:06;17.10;93.40
1405;DHT22;697;51.114;6.542;2022-10-31T09:08:35;17.20;93.30
1405;DHT22;697;51.114;6.542;2022-10-31T09:11:02;17.20;93.20
1405;DHT22;697;51.114;6.542;2022-10-31T09:13:31;17.30;93.10
1405;DHT22;697;51.114;6.542;2022-10-31T09:15:57;17.40;93.10
1405;DHT22;697;51.114;6.542;2022-10-31T09:18:25;17.50;93.10
1405;DHT22;697;51.114;6.542;2022-10-31T09:20:53;17.60;93.00
1405;DHT22;697;51.114;6.542;2022-10-31T09:23:21;17.70;92.90
1405;DHT22;697;51.114;6.542;2022-10-31T09:25:50;17.80;92.80
1405;DHT22;697;51.114;6.542;2022-10-31T09:28:18;18.00;92.50
1405;DHT22;697;51.114;6.542;2022-10-31T09:30:48;18.20;92.10
1405;DHT22;697;51.114;6.542;2022-10-31T09:33:15;18.40;91.80
1405;DHT22;697;51.114;6.542;2022-10-31T09:35:43;18.50;91.40
1405;DHT22;697;51.114;6.542;2022-10-31T09:38:11;18.50;91.00
1405;DHT22;697;51.114;6.542;2022-10-31T09:40:41;18.60;90.80
1405;DHT22;697;51.114;6.542;2022-10-31T09:43:15;18.70;90.60
1405;DHT22;697;51.114;6.542;2022-10-31T09:45:53;18.70;90.50
1405;DHT22;697;51.114;6.542;2022-10-31T09:48:33;18.70;90.40
1405;DHT22;697;51.114;6.542;2022-10-31T09:51:05;18.70;90.20
1405;DHT22;697;51.114;6.542;2022-10-31T09:53:37;18.80;90.10
1405;DHT22;697;51.114;6.542;2022-10-31T09:56:08;18.80;90.00
1405;DHT22;697;51.114;6.542;2022-10-31T09:58:42;19.00;89.60
1405;DHT22;697;51.114;6.542;2022-10-31T10:01:22;19.10;89.30
1405;DHT22;697;51.114;6.542;2022-10-31T10:03:53;19.20;88.90
1405;DHT22;697;51.114;6.542;2022-10-31T10:06:23;19.30;88.40
1405;DHT22;697;51.114;6.542;2022-10-31T10:08:50;19.30;87.00
1405;DHT22;697;51.114;6.542;2022-10-31T10:11:27;19.40;86.60
1405;DHT22;697;51.114;6.542;2022-10-31T10:14:24;19.40;86.50
1405;DHT22;697;51.114;6.542;2022-10-31T10:17:07;19.40;86.30
1405;DHT22;697;51.114;6.542;2022-10-31T10:19:51;19.50;86.30
1405;DHT22;697;51.114;6.542;2022-10-31T10:22:24;19.50;86.00
1405;DHT22;697;51.114;6.542;2022-10-31T10:25:02;19.50;85.80
1405;DHT22;697;51.114;6.542;2022-10-31T10:27:41;19.60;85.60
1405;DHT22;697;51.114;6.542;2022-10-31T10:30:14;19.60;85.30
1405;DHT22;697;51.114;6.542;2022-10-31T10:32:44;19.70;85.00
1405;DHT22;697;51.114;6.542;2022-10-31T10:35:22;19.70;84.70
1405;DHT22;697;51.114;6.542;2022-10-31T10:37:54;19.70;84.60
1405;DHT22;697;51.114;6.542;2022-10-31T10:40:24;19.80;84.70
1405;DHT22;697;51.114;6.542;2022-10-31T10:42:59;19.80;84.70
1405;DHT22;697;51.114;6.542;2022-10-31T10:45:46;19.80;84.70
1405;DHT22;697;51.114;6.542;2022-10-31T10:48:42;19.90;84.70
1405;DHT22;697;51.114;6.542;2022-10-31T10:51:21;20.00;84.00
1405;DHT22;697;51.114;6.542;2022-10-31T10:54:02;20.10;83.40
1405;DHT22;697;51.114;6.542;2022-10-31T10:56:40;20.20;83.10
1405;DHT22;697;51.114;6.542;2022-10-31T10:59:11;20.30;82.60
1405;DHT22;697;51.114;6.542;2022-10-31T11:01:40;20.40;82.30
1405;DHT22;697;51.114;6.542;2022-10-31T11:04:30;20.50;81.90
1405;DHT22;697;51.114;6.542;2022-10-31T11:06:59;20.60;81.50
1405;DHT22;697;51.114;6.542;2022-10-31T11:09:26;20.60;81.00
1405;DHT22;697;51.114;6.542;2022-10-31T11:11:54;20.70;80.70
1405;DHT22;697;51.114;6.542;2022-10-31T11:14:23;20.70;80.10
1405;DHT22;697;51.114;6.542;2022-10-31T11:16:53;20.70;79.80
1405;DHT22;697;51.114;6.542;2022-10-31T11:19:23;20.70;79.50
1405;DHT22;697;51.114;6.542;2022-10-31T11:21:52;20.80;79.30
1405;DHT22;697;51.114;6.542;2022-10-31T11:24:20;20.80;79.30
1405;DHT22;697;51.114;6.542;2022-10-31T11:26:49;20.90;79.20
1405;DHT22;697;51.114;6.542;2022-10-31T11:29:20;21.00;79.10
1405;DHT22;697;51.114;6.542;2022-10-31T11:31:47;21.10;78.60
1405;DHT22;697;51.114;6.542;2022-10-31T11:34:27;21.20;77.30
1405;DHT22;697;51.114;6.542;2022-10-31T11:36:56;21.30;77.20
1405;DHT22;697;51.114;6.542;2022-10-31T11:39:24;21.40;77.10
1405;DHT22;697;51.114;6.542;2022-10-31T11:41:52;21.60;76.40
1405;DHT22;697;51.114;6.542;2022-10-31T11:44:23;21.70;75.50
1405;DHT22;697;51.114;6.542;2022-10-31T11:46:54;21.90;75.10
1405;DHT22;697;51.114;6.542;2022-10-31T11:49:27;22.00;75.10
1405;DHT22;697;51.114;6.542;2022-10-31T11:51:57;22.10;73.50
1405;DHT22;697;51.114;6.542;2022-10-31T11:54:26;22.10;72.90
1405;DHT22;697;51.114;6.542;2022-10-31T11:56:54;22.10;72.30
1405;DHT22;697;51.114;6.542;2022-10-31T11:59:25;22.20;71.70
1405;DHT22;697;51.114;6.542;2022-10-31T12:01:54;22.20;71.70
1405;DHT22;697;51.114;6.542;2022-10-31T12:04:36;22.40;71.50
1405;DHT22;697;51.114;6.542;2022-10-31T12:07:05;22.50;71.10
1405;DHT22;697;51.114;6.542;2022-10-31T12:09:34;22.70;70.40
1405;DHT22;697;51.114;6.542;2022-10-31T12:12:18;22.90;69.80
1405;DHT22;697;51.114;6.542;2022-10-31T12:14:57;23.20;69.30
1405;DHT22;697;51.114;6.542;2022-10-31T12:17:30;23.50;68.50
1405;DHT22;697;51.114;6.542;2022-10-31T12:20:05;23.70;66.30
1405;DHT22;697;51.114;6.542;2022-10-31T12:22:40;23.80;65.00
1405;DHT22;697;51.114;6.542;2022-10-31T12:25:23;23.90;64.30
1405;DHT22;697;51.114;6.542;2022-10-31T12:28:24;24.10;63.80
1405;DHT22;697;51.114;6.542;2022-10-31T12:31:02;24.30;62.70
1405;DHT22;697;51.114;6.542;2022-10-31T12:33:43;24.60;61.60
1405;DHT22;697;51.114;6.542;2022-10-31T12:36:34;24.80;60.90
1405;DHT22;697;51.114;6.542;2022-10-31T12:39:24;24.90;59.40
1405;DHT22;697;51.114;6.542;2022-10-31T12:41:55;24.90;58.60
1405;DHT22;697;51.114;6.542;2022-10-31T12:44:37;25.00;58.10
1405;DHT22;697;51.114;6.542;2022-10-31T12:47:28;25.00;57.90
1405;DHT22;697;51.114;6.542;2022-10-31T12:50:06;24.90;57.50
1405;DHT22;697;51.114;6.542;2022-10-31T12:52:54;24.70;57.70
1405;DHT22;697;51.114;6.542;2022-10-31T12:55:36;24.40;57.80
1405;DHT22;697;51.114;6.542;2022-10-31T12:58:09;24.10;58.40
1405;DHT22;697;51.114;6.542;2022-10-31T13:00:38;23.90;59.10
1405;DHT22;697;51.114;6.542;2022-10-31T13:03:20;23.70;59.50
1405;DHT22;697;51.114;6.542;2022-10-31T13:05:53;23.60;59.40
1405;DHT22;697;51.114;6.542;2022-10-31T13:08:26;23.50;59.80
1405;DHT22;697;51.114;6.542;2022-10-31T13:11:02;23.30;60.10
1405;DHT22;697;51.114;6.542;2022-10-31T13:13:37;23.20;60.40
1405;DHT22;697;51.114;6.542;2022-10-31T13:16:12;23.20;61.00
1405;DHT22;697;51.114;6.542;2022-10-31T13:18:42;23.20;61.20
1405;DHT22;697;51.114;6.542;2022-10-31T13:21:15;23.20;60.90
1405;DHT22;697;51.114;6.542;2022-10-31T13:23:45;23.10;60.70
1405;DHT22;697;51.114;6.542;2022-10-31T13:26:21;22.90;61.20
1405;DHT22;697;51.114;6.542;2022-10-31T13:28:52;22.80;61.70
1405;DHT22;697;51.114;6.542;2022-10-31T13:31:22;22.80;62.70
1405;DHT22;697;51.114;6.542;2022-10-31T13:33:52;22.70;63.50
1405;DHT22;697;51.114;6.542;2022-10-31T13:36:25;22.60;63.80
1405;DHT22;697;51.114;6.542;2022-10-31T13:38:59;22.60;64.30
1405;DHT22;697;51.114;6.542;2022-10-31T13:41:37;22.60;64.20
1405;DHT22;697;51.114;6.542;2022-10-31T13:44:12;22.70;64.40
1405;DHT22;697;51.114;6.542;2022-10-31T13:46:41;22.60;63.90
1405;DHT22;697;51.114;6.542;2022-10-31T13:49:38;22.60;64.10
1405;DHT22;697;51.114;6.542;2022-10-31T13:52:21;22.50;63.40
1405;DHT22;697;51.114;6.542;2022-10-31T13:54:51;22.40;64.00
1405;DHT22;697;51.114;6.542;2022-10-31T13:57:28;22.20;64.60
1405;DHT22;697;51.114;6.542;2022-10-31T13:59:58;22.10;65.10
1405;DHT22;697;51.114;6.542;2022-10-31T14:02:27;22.00;65.30
1405;DHT22;697;51.114;6.542;2022-10-31T14:04:58;22.00;65.80
1405;DHT22;697;51.114;6.542;2022-10-31T14:07:26;21.90;66.00
1405;DHT22;697;51.114;6.542;2022-10-31T14:10:00;21.90;66.40
1405;DHT22;697;51.114;6.542;2022-10-31T14:12:31;21.80;66.50
1405;DHT22;697;51.114;6.542;2022-10-31T14:15:04;21.80;66.80
1405;DHT22;697;51.114;6.542;2022-10-31T14:17:38;21.80;67.10
1405;DHT22;697;51.114;6.542;2022-10-31T14:20:25;21.70;67.40
1405;DHT22;697;51.114;6.542;2022-10-31T14:22:52;21.50;67.50
1405;DHT22;697;51.114;6.542;2022-10-31T14:25:32;21.50;68.00
1405;DHT22;697;51.114;6.542;2022-10-31T14:28:00;21.40;68.20
1405;DHT22;697;51.114;6.542;2022-10-31T14:30:29;21.20;68.60
1405;DHT22;697;51.114;6.542;2022-10-31T14:32:58;21.10;69.10
1405;DHT22;697;51.114;6.542;2022-10-31T14:35:34;21.00;69.60
1405;DHT22;697;51.114;6.542;2022-10-31T14:38:24;20.90;69.90
1405;DHT22;697;51.114;6.542;2022-10-31T14:41:29;20.80;70.50
1405;DHT22;697;51.114;6.542;2022-10-31T14:44:18;20.80;71.30
1405;DHT22;697;51.114;6.542;2022-10-31T14:46:56;20.70;71.60
1405;DHT22;697;51.114;6.542;2022-10-31T14:49:39;20.70;72.10
1405;DHT22;697;51.114;6.542;2022-10-31T14:52:13;20.70;72.50
1405;DHT22;697;51.114;6.542;2022-10-31T14:54:44;20.70;72.50
1405;DHT22;697;51.114;6.542;2022-10-31T14:57:16;20.70;72.40
1405;DHT22;697;51.114;6.542;2022-10-31T14:59:50;20.70;72.70
1405;DHT22;697;51.114;6.542;2022-10-31T15:02:23;20.70;72.30
1405;DHT22;697;51.114;6.542;2022-10-31T15:04:51;20.70;72.10
1405;DHT22;697;51.114;6.542;2022-10-31T15:07:20;20.70;72.50
1405;DHT22;697;51.114;6.542;2022-10-31T15:09:55;20.60;72.30
1405;DHT22;697;51.114;6.542;2022-10-31T15:12:26;20.60;72.40
1405;DHT22;697;51.114;6.542;2022-10-31T15:14:54;20.60;72.70
1405;DHT22;697;51.114;6.542;2022-10-31T15:17:22;20.60;72.80
1405;DHT22;697;51.114;6.542;2022-10-31T15:19:50;20.50;73.20
1405;DHT22;697;51.114;6.542;2022-10-31T15:22:19;20.50;73.70
1405;DHT22;697;51.114;6.542;2022-10-31T15:24:47;20.50;73.50
1405;DHT22;697;51.114;6.542;2022-10-31T15:27:21;20.50;73.30
1405;DHT22;697;51.114;6.542;2022-10-31T15:29:51;20.40;73.50
1405;DHT22;697;51.114;6.542;2022-10-31T15:32:20;20.40;73.50
1405;DHT22;697;51.114;6.542;2022-10-31T15:34:49;20.40;73.80
1405;DHT22;697;51.114;6.542;2022-10-31T15:37:17;20.40;74.00
1405;DHT22;697;51.114;6.542;2022-10-31T15:39:47;20.30;74.00
1405;DHT22;697;51.114;6.542;2022-10-31T15:42:22;20.20;74.10
1405;DHT22;697;51.114;6.542;2022-10-31T15:44:58;20.10;74.30
1405;DHT22;697;51.114;6.542;2022-10-31T15:47:28;20.10;75.20
1405;DHT22;697;51.114;6.542;2022-10-31T15:49:57;20.00;75.30
1405;DHT22;697;51.114;6.542;2022-10-31T15:52:28;20.00;75.70
1405;DHT22;697;51.114;6.542;2022-10-31T15:54:58;19.90;75.60
1405;DHT22;697;51.114;6.542;2022-10-31T15:57:26;19.90;75.80
1405;DHT22;697;51.114;6.542;2022-10-31T15:59:55;19.80;76.10
1405;DHT22;697;51.114;6.542;2022-10-31T16:02:23;19.80;76.80
1405;DHT22;697;51.114;6.542;2022-10-31T16:04:53;19.70;77.00
1405;DHT22;697;51.114;6.542;2022-10-31T16:07:20;19.70;77.40
1405;DHT22;697;51.114;6.542;2022-10-31T16:09:52;19.60;77.80
1405;DHT22;697;51.114;6.542;2022-10-31T16:12:20;19.60;78.30
1405;DHT22;697;51.114;6.542;2022-10-31T16:14:47;19.50;78.40
1405;DHT22;697;51.114;6.542;2022-10-31T16:17:18;19.50;78.70
1405;DHT22;697;51.114;6.542;2022-10-31T16:19:52;19.50;78.50
1405;DHT22;697;51.114;6.542;2022-10-31T16:22:24;19.40;78.20
1405;DHT22;697;51.114;6.542;2022-10-31T16:24:55;19.40;78.30
1405;DHT22;697;51.114;6.542;2022-10-31T16:27:24;19.30;78.40
1405;DHT22;697;51.114;6.542;2022-10-31T16:29:54;19.20;78.00
1405;DHT22;697;51.114;6.542;2022-10-31T16:32:30;19.20;78.20
1405;DHT22;697;51.114;6.542;2022-10-31T16:34:58;19.20;77.10
1405;DHT22;697;51.114;6.542;2022-10-31T16:37:25;19.20;77.60
1405;DHT22;697;51.114;6.542;2022-10-31T16:39:52;19.20;77.10
1405;DHT22;697;51.114;6.542;2022-10-31T16:42:19;19.20;77.10
1405;DHT22;697;51.114;6.542;2022-10-31T16:44:47;19.10;77.20